createdAt,value
2023-02-03T00:01:54.439Z,99091.94
2023-02-03T00:04:21.969Z,99089.13
2023-02-03T00:06:51.022Z,99088.72
2023-02-03T00:09:19.993Z,99081.72
2023-02-03T00:11:47.685Z,99077.72
2023-02-03T00:14:15.205Z,99085.41
2023-02-03T00:16:42.965Z,99078.81
2023-02-03T00:19:10.592Z,99083.75
2023-02-03T00:21:38.178Z,99084.44
2023-02-03T00:24:05.988Z,99083.09
2023-02-03T00:26:33.461Z,99079.00
2023-02-03T00:29:01.188Z,99080.72
2023-02-03T00:31:47.167Z,99080.84
2023-02-03T00:35:41.585Z,99086.59
2023-02-03T00:39:26.543Z,99089.22
2023-02-03T00:43:02.284Z,99088.25
2023-02-03T00:46:53.905Z,99083.69
2023-02-03T00:57:55.623Z,99077.44
2023-02-03T01:20:22.522Z,99070.81
2023-02-03T01:23:27.451Z,99077.44
2023-02-03T01:26:09.653Z,99073.47
2023-02-03T01:28:38.259Z,99075.59
2023-02-03T01:31:17.582Z,99073.34
2023-02-03T01:33:48.260Z,99071.03
2023-02-03T01:36:17.443Z,99071.91
2023-02-03T01:38:45.784Z,99079.03
2023-02-03T01:41:24.594Z,99075.88
2023-02-03T01:43:56.686Z,99071.53
2023-02-03T01:46:48.353Z,99079.38
2023-02-03T01:49:31.901Z,99069.47
2023-02-03T01:51:59.854Z,99071.53
2023-02-03T01:54:31.855Z,99072.56
2023-02-03T01:57:06.421Z,99068.78
2023-02-03T01:59:35.975Z,99064.03
2023-02-03T02:02:05.010Z,99066.34
2023-02-03T02:04:59.911Z,99061.69
2023-02-03T02:07:28.288Z,99061.28
2023-02-03T02:09:56.740Z,99054.50
2023-02-03T02:12:24.283Z,99069.88
2023-02-03T02:14:52.067Z,99061.50
2023-02-03T02:17:32.448Z,99061.50
2023-02-03T02:20:10.157Z,99058.88
2023-02-03T02:22:46.669Z,99065.16
2023-02-03T02:25:42.427Z,99053.31
2023-02-03T02:28:28.184Z,99065.09
2023-02-03T02:31:02.855Z,99063.81
2023-02-03T02:33:55.278Z,99064.13
2023-02-03T02:36:35.369Z,99058.59
2023-02-03T02:39:38.883Z,99052.34
2023-02-03T02:43:02.186Z,99053.59
2023-02-03T02:45:40.571Z,99044.09
2023-02-03T02:48:19.658Z,99060.63
2023-02-03T02:50:52.116Z,99054.09
2023-02-03T02:53:24.911Z,99052.75
2023-02-03T02:55:57.241Z,99051.38
2023-02-03T02:58:27.099Z,99037.75
2023-02-03T03:00:55.337Z,99048.41
2023-02-03T03:03:24.793Z,99060.88
2023-02-03T03:05:56.137Z,99047.59
2023-02-03T03:08:50.062Z,99058.88
2023-02-03T03:11:18.687Z,99046.25
2023-02-03T03:13:51.060Z,99045.88
2023-02-03T03:16:25.795Z,99051.84
2023-02-03T03:19:04.958Z,99056.84
2023-02-03T03:21:41.165Z,99051.88
2023-02-03T03:24:14.351Z,99052.41
2023-02-03T03:26:50.990Z,99062.00
2023-02-03T03:29:31.420Z,99062.38
2023-02-03T03:31:59.076Z,99056.28
2023-02-03T03:34:26.638Z,99056.53
2023-02-03T03:37:03.408Z,99051.69
2023-02-03T03:39:35.764Z,99059.22
2023-02-03T03:42:14.183Z,99052.63
2023-02-03T03:45:00.417Z,99051.31
2023-02-03T03:47:35.857Z,99048.59
2023-02-03T03:50:10.331Z,99058.22
2023-02-03T03:52:40.065Z,99044.69
2023-02-03T03:55:11.949Z,99057.81
2023-02-03T03:57:48.933Z,99053.69
2023-02-03T04:00:20.856Z,99057.59
2023-02-03T04:02:53.476Z,99055.28
2023-02-03T04:05:22.133Z,99054.97
2023-02-03T04:07:49.782Z,99054.13
2023-02-03T04:10:37.614Z,99050.16
2023-02-03T04:13:06.388Z,99050.13
2023-02-03T04:15:34.471Z,99049.13
2023-02-03T04:18:02.376Z,99055.66
2023-02-03T04:20:31.656Z,99053.00
2023-02-03T04:22:59.644Z,99057.38
2023-02-03T04:25:27.217Z,99044.09
2023-02-03T04:27:55.609Z,99046.63
2023-02-03T04:30:24.139Z,99057.75
2023-02-03T04:32:51.705Z,99046.75
2023-02-03T04:35:19.868Z,99049.88
2023-02-03T04:37:47.426Z,99056.44
2023-02-03T04:40:15.149Z,99051.69
2023-02-03T04:42:43.014Z,99056.34
2023-02-03T04:45:12.579Z,99054.69
2023-02-03T04:47:40.460Z,99053.03
2023-02-03T04:50:08.192Z,99060.91
2023-02-03T04:52:35.767Z,99050.25
2023-02-03T04:55:04.189Z,99053.31
2023-02-03T04:57:31.854Z,99060.13
2023-02-03T04:59:59.359Z,99058.38
2023-02-03T05:02:26.845Z,99057.66
2023-02-03T05:04:54.556Z,99044.22
2023-02-03T05:07:22.100Z,99051.13
2023-02-03T05:09:49.574Z,99047.38
2023-02-03T05:12:17.043Z,99055.41
2023-02-03T05:14:44.494Z,99058.22
2023-02-03T05:17:12.076Z,99057.53
2023-02-03T05:19:39.665Z,99059.34
2023-02-03T05:22:07.237Z,99050.16
2023-02-03T05:24:34.749Z,99050.16
2023-02-03T05:27:02.310Z,99046.75
2023-02-03T05:29:29.840Z,99040.16
2023-02-03T05:31:57.549Z,99048.00
2023-02-03T05:34:25.048Z,99039.59
2023-02-03T05:36:52.793Z,99044.34
2023-02-03T05:39:20.342Z,99048.34
2023-02-03T05:41:56.572Z,99053.50
2023-02-03T05:44:29.402Z,99056.31
2023-02-03T05:46:59.831Z,99056.56
2023-02-03T05:49:27.584Z,99056.31
2023-02-03T05:51:56.144Z,99059.19
2023-02-03T05:54:23.971Z,99065.94
2023-02-03T05:56:51.759Z,99063.41
2023-02-03T05:59:19.428Z,99066.00
2023-02-03T06:01:46.985Z,99064.00
2023-02-03T06:04:14.722Z,99060.88
2023-02-03T06:06:42.252Z,99058.56
2023-02-03T06:09:09.990Z,99068.78
2023-02-03T06:11:37.574Z,99068.13
2023-02-03T06:14:05.427Z,99068.34
2023-02-03T06:16:32.990Z,99067.75
2023-02-03T06:19:02.128Z,99056.47
2023-02-03T06:21:29.771Z,99065.94
2023-02-03T06:23:57.368Z,99076.50
2023-02-03T06:26:25.615Z,99072.75
2023-02-03T06:28:53.240Z,99068.03
2023-02-03T06:31:20.816Z,99074.06
2023-02-03T06:33:48.470Z,99069.94
2023-02-03T06:36:16.112Z,99075.00
2023-02-03T06:38:43.686Z,99065.59
2023-02-03T06:41:11.146Z,99064.16
2023-02-03T06:43:38.662Z,99059.09
2023-02-03T06:46:09.448Z,99067.41
2023-02-03T06:48:38.571Z,99063.03
2023-02-03T06:51:06.560Z,99063.66
2023-02-03T06:53:34.182Z,99065.03
2023-02-03T06:56:02.336Z,99074.13
2023-02-03T06:58:29.936Z,99079.22
2023-02-03T07:00:57.825Z,99080.44
2023-02-03T07:03:25.461Z,99065.94
2023-02-03T07:05:53.055Z,99070.81
2023-02-03T07:08:26.822Z,99063.28
2023-02-03T07:27:48.441Z,99067.81
2023-02-03T07:43:11.818Z,99070.63
2023-02-03T07:49:58.117Z,99073.16
2023-02-03T08:07:57.384Z,99060.38
2023-02-03T08:18:58.431Z,99055.09
2023-02-03T09:03:04.825Z,99041.19
2023-02-03T09:09:37.456Z,99039.38
2023-02-03T09:12:24.180Z,99044.13
2023-02-03T09:15:10.566Z,99033.09
2023-02-03T09:18:17.495Z,99044.00
2023-02-03T09:20:45.148Z,99033.75
2023-02-03T09:23:12.723Z,99038.66
2023-02-03T09:25:40.318Z,99028.44
2023-02-03T09:28:07.824Z,99030.56
2023-02-03T09:30:35.597Z,99038.75
2023-02-03T09:33:03.126Z,99034.06
2023-02-03T09:35:31.000Z,99031.81
2023-02-03T09:38:00.887Z,99030.16
2023-02-03T09:40:34.659Z,99025.88
2023-02-03T09:46:48.947Z,99028.97
2023-02-03T09:49:27.235Z,99026.03
2023-02-03T09:52:02.757Z,99027.81
2023-02-03T09:54:48.313Z,99028.88
2023-02-03T09:57:23.654Z,99021.69
2023-02-03T09:59:53.111Z,99019.00
2023-02-03T10:02:30.266Z,99028.88
2023-02-03T10:04:57.679Z,99027.94
2023-02-03T10:07:55.891Z,99034.56
2023-02-03T10:10:37.012Z,99028.59
2023-02-03T10:13:13.529Z,99030.41
2023-02-03T10:15:43.794Z,99027.81
2023-02-03T10:18:19.980Z,99011.13
2023-02-03T10:20:53.409Z,99029.38
2023-02-03T10:23:29.937Z,99018.13
2023-02-03T10:26:04.602Z,99030.81
2023-02-03T10:28:39.665Z,99025.59
2023-02-03T10:31:19.183Z,99016.97
2023-02-03T10:33:48.026Z,99019.50
2023-02-03T10:36:23.735Z,99024.38
2023-02-03T10:39:22.280Z,99011.59
2023-02-03T10:41:52.943Z,99008.22
2023-02-03T10:44:34.162Z,99014.34
2023-02-03T10:47:02.168Z,99009.19
2023-02-03T10:49:29.890Z,99009.44
2023-02-03T10:52:03.531Z,99006.72
2023-02-03T10:54:34.390Z,99012.53
2023-02-03T10:57:14.602Z,99012.03
2023-02-03T10:59:45.578Z,99006.91
2023-02-03T11:02:30.566Z,99004.00
2023-02-03T11:05:16.426Z,99006.06
2023-02-03T11:07:44.833Z,99000.72
2023-02-03T11:10:31.234Z,99005.13
2023-02-03T11:13:26.653Z,98999.94
2023-02-03T11:15:58.759Z,98989.38
2023-02-03T11:18:47.485Z,99001.97
2023-02-03T11:21:18.221Z,99002.25
2023-02-03T11:24:11.116Z,98995.22
2023-02-03T11:26:45.454Z,99001.19
2023-02-03T11:29:25.175Z,99000.53
2023-02-03T11:31:57.939Z,98993.66
2023-02-03T11:34:36.013Z,98995.16
2023-02-03T11:37:28.597Z,98997.63
2023-02-03T11:40:16.444Z,98997.34
2023-02-03T11:43:02.551Z,98994.47
2023-02-03T11:45:38.601Z,98987.13
2023-02-03T11:48:30.561Z,98998.16
2023-02-03T11:51:24.535Z,98987.84
2023-02-03T11:54:16.722Z,98994.97
2023-02-03T11:57:17.141Z,98990.91
2023-02-03T12:00:05.047Z,98981.06
2023-02-03T12:02:44.334Z,98991.78
2023-02-03T12:05:20.351Z,98985.34
2023-02-03T12:07:57.637Z,98987.53
2023-02-03T12:10:46.182Z,98984.25
2023-02-03T12:13:33.150Z,98994.84
2023-02-03T12:16:12.058Z,98985.34
2023-02-03T12:19:03.731Z,98987.31
2023-02-03T12:22:33.453Z,98982.38
2023-02-03T12:25:36.012Z,98983.16
2023-02-03T12:28:36.839Z,98986.53
2023-02-03T12:31:31.921Z,98981.69
2023-02-03T12:34:19.892Z,98979.16
2023-02-03T12:37:06.210Z,98977.97
2023-02-03T12:40:22.270Z,98978.84
2023-02-03T12:43:00.147Z,98977.19
2023-02-03T12:45:36.715Z,98971.84
2023-02-03T12:48:14.846Z,98986.28
2023-02-03T12:51:02.534Z,98980.81
2023-02-03T12:53:47.413Z,98976.75
2023-02-03T12:56:26.628Z,98974.22
2023-02-03T12:59:07.765Z,98977.09
2023-02-03T13:01:51.426Z,98974.31
2023-02-03T13:04:37.999Z,98979.53
2023-02-03T13:07:14.714Z,98975.03
2023-02-03T13:09:57.752Z,98978.53
2023-02-03T13:12:57.611Z,98977.66
2023-02-03T13:15:41.295Z,98991.63
2023-02-03T13:18:27.543Z,98991.13
2023-02-03T13:20:57.267Z,98983.75
2023-02-03T13:23:29.079Z,98981.59
2023-02-03T13:26:10.175Z,98983.13
2023-02-03T13:29:03.882Z,98976.19
2023-02-03T13:31:34.340Z,98975.31
2023-02-03T13:34:23.760Z,98975.31
2023-02-03T13:37:00.111Z,98985.41
2023-02-03T13:39:33.703Z,98986.81
2023-02-03T13:42:19.425Z,98985.72
2023-02-03T13:44:51.724Z,98982.75
2023-02-03T13:47:26.702Z,98977.91
2023-02-03T13:50:02.941Z,98977.34
2023-02-03T13:52:47.387Z,98978.50
2023-02-03T13:55:42.740Z,98988.72
2023-02-03T13:58:31.604Z,98986.63
2023-02-03T14:01:03.713Z,98988.75
2023-02-03T14:03:31.223Z,98991.44
2023-02-03T14:06:01.814Z,98984.22
2023-02-03T14:08:29.450Z,98996.66
2023-02-03T14:11:34.598Z,98981.59
2023-02-03T14:14:10.233Z,98992.28
2023-02-03T14:16:45.616Z,98993.94
2023-02-03T14:19:20.339Z,98990.06
2023-02-03T14:22:15.627Z,98991.81
2023-02-03T14:24:47.245Z,98982.59
2023-02-03T14:27:21.635Z,98991.31
2023-02-03T14:30:08.216Z,98989.28
2023-02-03T14:32:56.183Z,98987.69
2023-02-03T14:35:28.147Z,98991.72
2023-02-03T14:38:07.348Z,98979.66
2023-02-03T14:40:52.855Z,98992.47
2023-02-03T14:43:35.530Z,98986.19
2023-02-03T14:46:22.108Z,98994.47
2023-02-03T14:49:33.534Z,98986.31
2023-02-03T14:52:22.255Z,98984.66
2023-02-03T14:55:01.626Z,98991.16
2023-02-03T14:57:31.945Z,98990.97
2023-02-03T15:00:07.831Z,98982.34
2023-02-03T15:02:36.342Z,98981.66
2023-02-03T15:05:12.917Z,98988.22
2023-02-03T15:07:49.700Z,98994.03
2023-02-03T15:10:24.185Z,98981.38
2023-02-03T15:12:53.921Z,98981.06
2023-02-03T15:15:26.456Z,98991.69
2023-02-03T15:18:02.383Z,98986.53
2023-02-03T15:20:41.585Z,98989.16
2023-02-03T15:23:29.560Z,98989.09
2023-02-03T15:25:58.592Z,98985.34
2023-02-03T15:28:28.065Z,98989.44
2023-02-03T15:31:12.435Z,98984.28
2023-02-03T15:33:44.385Z,98989.19
2023-02-03T15:36:23.281Z,98992.41
2023-02-03T15:38:59.051Z,98998.44
2023-02-03T15:41:26.743Z,98995.81
2023-02-03T15:43:59.037Z,98987.41
2023-02-03T15:46:48.849Z,99000.31
2023-02-03T15:49:19.391Z,99003.28
2023-02-03T15:51:52.143Z,98997.34
2023-02-03T15:54:25.065Z,99007.69
2023-02-03T15:57:05.488Z,99011.31
2023-02-03T15:59:36.969Z,99011.78
2023-02-03T16:02:21.148Z,99019.13
2023-02-03T16:04:50.520Z,99012.75
2023-02-03T16:07:29.822Z,99024.63
2023-02-03T16:09:58.868Z,99009.44
2023-02-03T16:12:35.988Z,99016.09
2023-02-03T16:15:04.636Z,99012.69
2023-02-03T16:17:39.441Z,99014.44
2023-02-03T16:20:13.322Z,99029.00
2023-02-03T16:22:47.199Z,99008.38
2023-02-03T16:25:21.884Z,99005.63
2023-02-03T16:28:29.798Z,99022.91
2023-02-03T16:31:38.768Z,99014.16
2023-02-03T16:34:37.155Z,99015.38
2023-02-03T16:37:41.645Z,99016.75
2023-02-03T16:40:30.205Z,99020.38
2023-02-03T16:43:17.285Z,99023.88
2023-02-03T16:46:03.709Z,99021.47
2023-02-03T16:48:49.837Z,99017.13
2023-02-03T16:51:17.519Z,99009.38
2023-02-03T16:53:48.364Z,99021.41
2023-02-03T16:56:18.694Z,99020.91
2023-02-03T16:58:46.256Z,99018.38
2023-02-03T17:01:14.116Z,99029.22
2023-02-03T17:03:41.815Z,99015.41
2023-02-03T17:06:11.961Z,99029.66
2023-02-03T17:08:40.519Z,99033.75
2023-02-03T17:11:20.650Z,99035.66
2023-02-03T17:13:48.721Z,99023.44
2023-02-03T17:16:19.853Z,99041.34
2023-02-03T17:18:47.711Z,99033.41
2023-02-03T17:21:18.282Z,99046.19
2023-02-03T17:23:45.820Z,99040.22
2023-02-03T17:26:13.391Z,99049.38
2023-02-03T17:28:43.322Z,99050.19
2023-02-03T17:31:17.341Z,99050.81
2023-02-03T17:33:46.049Z,99058.84
2023-02-03T17:36:17.352Z,99053.41
2023-02-03T17:55:22.088Z,99056.75
2023-02-03T17:57:49.767Z,99063.94
2023-02-03T18:00:17.794Z,99064.94
2023-02-03T18:02:51.276Z,99067.72
2023-02-03T18:05:19.300Z,99073.06
2023-02-03T18:07:49.245Z,99052.59
2023-02-03T18:10:17.041Z,99075.84
2023-02-03T18:12:44.522Z,99062.72
2023-02-03T18:15:12.119Z,99069.66
2023-02-03T18:17:39.654Z,99070.78
2023-02-03T18:20:09.975Z,99076.13
2023-02-03T18:22:37.871Z,99073.09
2023-02-03T18:25:06.059Z,99079.81
2023-02-03T18:27:33.752Z,99088.81
2023-02-03T18:30:01.375Z,99087.06
2023-02-03T18:32:30.569Z,99076.94
2023-02-03T18:35:00.997Z,99084.13
2023-02-03T18:37:28.838Z,99079.22
2023-02-03T18:39:56.409Z,99080.28
2023-02-03T18:42:24.169Z,99073.44
2023-02-03T18:44:51.705Z,99083.94
2023-02-03T18:47:19.335Z,99097.75
2023-02-03T18:49:48.010Z,99099.22
2023-02-03T18:52:15.483Z,99090.94
2023-02-03T18:54:43.119Z,99087.16
2023-02-03T18:57:14.028Z,99090.50
2023-02-03T18:59:41.819Z,99098.88
2023-02-03T19:02:10.795Z,99098.78
2023-02-03T19:04:38.473Z,99100.34
2023-02-03T19:07:06.091Z,99102.09
2023-02-03T19:09:34.204Z,99106.56
2023-02-03T19:12:03.166Z,99107.53
2023-02-03T19:14:30.661Z,99102.09
2023-02-03T19:16:58.275Z,99107.09
2023-02-03T19:19:25.848Z,99103.31
2023-02-03T19:21:53.656Z,99092.16
2023-02-03T19:24:21.900Z,99105.94
2023-02-03T19:26:49.415Z,99105.25
2023-02-03T19:29:17.104Z,99105.25
2023-02-03T19:31:44.959Z,99108.47
2023-02-03T19:34:17.096Z,99108.75
2023-02-03T19:36:48.964Z,99112.59
2023-02-03T19:39:18.816Z,99115.94
2023-02-03T19:41:46.551Z,99109.91
2023-02-03T19:44:14.386Z,99118.63
2023-02-03T19:46:43.054Z,99125.44
2023-02-03T19:49:13.453Z,99121.97
2023-02-03T19:51:42.891Z,99120.38
2023-02-03T19:54:18.527Z,99132.09
2023-02-03T19:56:49.090Z,99133.06
2023-02-03T19:59:16.855Z,99132.53
2023-02-03T20:01:44.330Z,99129.28
2023-02-03T20:04:11.981Z,99140.94
2023-02-03T20:06:39.645Z,99133.25
2023-02-03T20:09:07.437Z,99137.97
2023-02-03T20:11:35.211Z,99128.19
2023-02-03T20:14:02.923Z,99133.75
2023-02-03T20:16:30.573Z,99144.41
2023-02-03T20:19:01.073Z,99143.38
2023-02-03T20:21:28.695Z,99141.28
2023-02-03T20:23:56.123Z,99147.31
2023-02-03T20:26:23.672Z,99147.56
2023-02-03T20:28:51.123Z,99149.22
2023-02-03T20:31:18.801Z,99158.75
2023-02-03T20:33:46.457Z,99161.56
2023-02-03T20:36:14.018Z,99166.72
2023-02-03T20:38:41.696Z,99172.41
2023-02-03T20:41:11.610Z,99169.03
2023-02-03T20:43:39.373Z,99166.22
2023-02-03T20:46:11.634Z,99161.94
2023-02-03T20:48:39.530Z,99156.41
2023-02-03T20:51:12.667Z,99167.94
2023-02-03T20:53:41.271Z,99166.72
2023-02-03T20:56:18.292Z,99167.66
2023-02-03T20:58:45.945Z,99177.59
2023-02-03T21:01:21.757Z,99187.84
2023-02-03T21:04:07.846Z,99184.44
2023-02-03T21:06:36.207Z,99180.66
2023-02-03T21:09:16.381Z,99192.03
2023-02-03T21:11:44.179Z,99187.72
2023-02-03T21:14:20.491Z,99193.19
2023-02-03T21:16:48.088Z,99187.47
2023-02-03T21:19:33.334Z,99195.53
2023-02-03T21:22:17.437Z,99202.25
2023-02-03T21:24:59.517Z,99204.09
2023-02-03T21:27:29.046Z,99210.53
2023-02-03T21:29:58.409Z,99214.72
2023-02-03T21:32:40.292Z,99214.31
2023-02-03T21:35:30.010Z,99211.59
2023-02-03T21:38:02.868Z,99217.94
2023-02-03T21:40:32.830Z,99214.31
2023-02-03T21:43:03.445Z,99208.13
2023-02-03T21:45:37.075Z,99215.19
2023-02-03T21:48:23.044Z,99216.72
2023-02-03T21:50:50.677Z,99217.41
2023-02-03T21:53:32.924Z,99213.78
2023-02-03T21:56:18.425Z,99208.81
2023-02-03T21:58:47.655Z,99217.41
2023-02-03T22:01:18.354Z,99211.28
2023-02-03T22:03:49.336Z,99215.66
2023-02-03T22:06:24.020Z,99221.88
2023-02-03T22:08:54.454Z,99212.53
2023-02-03T22:11:23.852Z,99212.53
2023-02-03T22:13:51.557Z,99217.00
2023-02-03T22:16:19.861Z,99226.72
2023-02-03T22:18:48.826Z,99228.47
2023-02-03T22:21:17.212Z,99217.56
2023-02-03T22:23:45.119Z,99229.38
2023-02-03T22:26:14.436Z,99214.34
2023-02-03T22:28:42.550Z,99228.06
2023-02-03T22:31:11.816Z,99222.22
2023-02-03T22:33:40.774Z,99226.84
2023-02-03T22:36:10.322Z,99219.06
2023-02-03T22:38:39.493Z,99219.84
2023-02-03T22:41:08.562Z,99217.31
2023-02-03T22:43:36.246Z,99231.41
2023-02-03T22:46:05.362Z,99232.19
2023-02-03T22:48:34.660Z,99233.44
2023-02-03T22:51:02.368Z,99241.63
2023-02-03T22:53:30.144Z,99243.72
2023-02-03T22:55:57.978Z,99236.53
2023-02-03T22:58:25.723Z,99236.72
2023-02-03T23:00:53.178Z,99244.59
2023-02-03T23:03:20.722Z,99247.25
2023-02-03T23:05:48.401Z,99243.06
2023-02-03T23:08:16.256Z,99243.22
2023-02-03T23:10:43.890Z,99238.84
2023-02-03T23:13:11.527Z,99242.06
2023-02-03T23:15:39.064Z,99244.28
2023-02-03T23:18:06.693Z,99254.16
2023-02-03T23:20:34.243Z,99246.38
2023-02-03T23:23:01.913Z,99255.41
2023-02-03T23:25:29.388Z,99254.59
2023-02-03T23:27:56.982Z,99253.09
2023-02-03T23:30:24.474Z,99252.16
2023-02-03T23:37:01.393Z,99259.28
2023-02-03T23:39:50.829Z,99262.31
2023-02-03T23:42:27.544Z,99244.91
2023-02-03T23:45:29.015Z,99255.22
2023-02-03T23:48:24.423Z,99257.00
2023-02-03T23:51:07.249Z,99256.63
2023-02-03T23:54:01.954Z,99254.53
2023-02-03T23:56:29.622Z,99261.84
2023-02-03T23:59:22.351Z,99270.00
